createdAt,value
2022-08-23T00:00:46.468Z,20.87
2022-08-23T00:01:46.655Z,20.89
2022-08-23T00:02:46.472Z,20.85
2022-08-23T00:03:46.413Z,20.80
2022-08-23T00:05:00.541Z,20.84
2022-08-23T00:05:46.376Z,20.85
2022-08-23T00:06:46.359Z,20.84
2022-08-23T00:07:46.341Z,20.85
2022-08-23T00:08:48.432Z,20.79
2022-08-23T00:09:46.303Z,20.85
2022-08-23T00:10:46.290Z,20.85
2022-08-23T00:11:46.266Z,20.80
2022-08-23T00:12:46.249Z,20.82
2022-08-23T00:13:48.267Z,20.79
2022-08-23T00:14:46.213Z,20.79
2022-08-23T00:15:46.195Z,20.76
2022-08-23T00:16:46.177Z,20.80
2022-08-23T00:17:46.157Z,20.76
2022-08-23T00:18:48.986Z,20.67
2022-08-23T00:19:46.122Z,20.52
2022-08-23T00:20:46.104Z,20.38
2022-08-23T00:21:46.086Z,20.26
2022-08-23T00:22:46.070Z,20.10
2022-08-23T00:23:46.050Z,19.95
2022-08-23T00:24:46.029Z,19.94
2022-08-23T00:25:46.009Z,19.65
2022-08-23T00:26:45.993Z,19.59
2022-08-23T00:27:45.974Z,19.61
2022-08-23T00:28:45.960Z,19.58
2022-08-23T00:29:45.940Z,19.54
2022-08-23T00:30:45.921Z,19.55
2022-08-23T00:31:45.903Z,19.66
2022-08-23T00:32:45.881Z,19.56
2022-08-23T00:33:45.865Z,19.69
2022-08-23T00:34:45.848Z,19.66
2022-08-23T00:35:45.826Z,19.62
2022-08-23T00:36:45.810Z,19.66
2022-08-23T00:37:50.982Z,19.61
2022-08-23T00:38:45.773Z,19.66
2022-08-23T00:39:47.979Z,19.65
2022-08-23T00:40:45.736Z,19.74
2022-08-23T00:41:45.721Z,19.73
2022-08-23T00:42:45.700Z,19.71
2022-08-23T00:43:45.681Z,19.76
2022-08-23T00:44:45.660Z,19.80
2022-08-23T00:45:45.641Z,19.83
2022-08-23T00:46:45.635Z,19.76
2022-08-23T00:47:45.605Z,19.83
2022-08-23T00:48:45.585Z,19.86
2022-08-23T00:49:45.566Z,19.84
2022-08-23T00:50:45.549Z,19.92
2022-08-23T00:51:53.049Z,19.84
2022-08-23T00:52:45.512Z,19.94
2022-08-23T00:53:45.492Z,19.86
2022-08-23T00:54:45.477Z,19.98
2022-08-23T00:55:45.457Z,19.94
2022-08-23T00:56:45.437Z,19.95
2022-08-23T00:57:46.917Z,20.05
2022-08-23T00:58:45.402Z,20.01
2022-08-23T00:59:45.380Z,20.02
2022-08-23T01:00:45.361Z,19.96
2022-08-23T01:01:45.424Z,19.78
2022-08-23T01:02:45.325Z,19.74
2022-08-23T01:03:45.304Z,19.81
2022-08-23T01:04:45.287Z,19.83
2022-08-23T01:05:45.266Z,19.84
2022-08-23T01:06:45.251Z,19.83
2022-08-23T01:07:45.233Z,19.76
2022-08-23T01:08:45.216Z,19.81
2022-08-23T01:09:45.202Z,19.84
2022-08-23T01:10:45.176Z,19.59
2022-08-23T01:11:45.158Z,19.46
2022-08-23T01:12:45.140Z,19.39
2022-08-23T01:13:45.120Z,19.44
2022-08-23T01:14:45.102Z,19.48
2022-08-23T01:15:45.082Z,19.50
2022-08-23T01:16:45.065Z,19.46
2022-08-23T01:17:45.043Z,19.43
2022-08-23T01:18:45.026Z,19.33
2022-08-23T01:19:45.005Z,19.22
2022-08-23T01:20:44.991Z,19.31
2022-08-23T01:21:44.971Z,19.29
2022-08-23T01:22:44.951Z,19.31
2022-08-23T01:23:44.932Z,19.28
2022-08-23T01:25:05.930Z,19.29
2022-08-23T01:25:44.893Z,19.25
2022-08-23T01:26:44.876Z,19.26
2022-08-23T01:27:44.858Z,19.32
2022-08-23T01:28:45.702Z,19.28
2022-08-23T01:29:44.821Z,19.26
2022-08-23T01:30:44.800Z,19.21
2022-08-23T01:31:44.785Z,19.13
2022-08-23T01:32:44.761Z,19.10
2022-08-23T01:33:44.746Z,19.19
2022-08-23T01:34:45.949Z,19.23
2022-08-23T01:35:44.705Z,19.25
2022-08-23T01:36:44.686Z,19.14
2022-08-23T01:37:44.667Z,19.11
2022-08-23T01:38:44.653Z,19.08
2022-08-23T01:39:44.646Z,19.14
2022-08-23T01:40:44.614Z,19.19
2022-08-23T01:41:44.592Z,19.18
2022-08-23T01:42:44.576Z,19.22
2022-08-23T01:43:44.560Z,19.23
2022-08-23T01:44:44.537Z,19.40
2022-08-23T01:45:44.515Z,19.41
2022-08-23T01:46:44.498Z,19.32
2022-08-23T01:47:44.482Z,19.36
2022-08-23T01:48:44.460Z,19.41
2022-08-23T01:49:44.442Z,19.40
2022-08-23T01:50:44.422Z,19.41
2022-08-23T01:51:44.402Z,19.36
2022-08-23T01:52:47.095Z,19.32
2022-08-23T01:53:44.365Z,19.23
2022-08-23T01:54:44.347Z,19.31
2022-08-23T01:55:44.329Z,19.23
2022-08-23T01:56:44.308Z,19.32
2022-08-23T01:57:46.354Z,19.22
2022-08-23T01:58:44.271Z,19.22
2022-08-23T01:59:44.252Z,19.13
2022-08-23T02:00:44.232Z,19.16
2022-08-23T02:01:44.323Z,19.22
2022-08-23T02:02:44.194Z,19.18
2022-08-23T02:03:44.174Z,19.22
2022-08-23T02:04:44.156Z,19.22
2022-08-23T02:05:44.187Z,19.14
2022-08-23T02:06:44.121Z,19.19
2022-08-23T02:07:44.099Z,19.16
2022-08-23T02:08:44.090Z,19.18
2022-08-23T02:09:44.060Z,19.37
2022-08-23T02:10:44.046Z,19.29
2022-08-23T02:11:44.024Z,19.29
2022-08-23T02:12:44.010Z,19.25
2022-08-23T02:13:43.988Z,19.10
2022-08-23T02:14:43.966Z,19.02
2022-08-23T02:15:43.948Z,19.04
2022-08-23T02:16:43.932Z,18.99
2022-08-23T02:17:43.912Z,19.04
2022-08-23T02:18:43.890Z,18.99
2022-08-23T02:19:43.870Z,18.99
2022-08-23T02:20:43.854Z,18.98
2022-08-23T02:21:43.831Z,18.88
2022-08-23T02:22:43.817Z,18.94
2022-08-23T02:23:43.796Z,18.91
2022-08-23T02:24:43.777Z,18.95
2022-08-23T02:25:43.759Z,19.02
2022-08-23T02:26:46.486Z,19.11
2022-08-23T02:27:44.149Z,19.04
2022-08-23T02:28:43.700Z,19.08
2022-08-23T02:29:44.093Z,19.00
2022-08-23T02:30:43.665Z,19.08
2022-08-23T02:31:43.645Z,19.07
2022-08-23T02:32:43.624Z,18.95
2022-08-23T02:33:43.604Z,18.92
2022-08-23T02:34:43.585Z,18.92
2022-08-23T02:35:43.568Z,18.90
2022-08-23T02:36:43.554Z,18.87
2022-08-23T02:37:43.529Z,18.82
2022-08-23T02:38:43.507Z,18.87
2022-08-23T02:39:43.540Z,18.85
2022-08-23T02:40:43.471Z,18.90
2022-08-23T02:41:43.456Z,18.87
2022-08-23T02:42:43.431Z,18.87
2022-08-23T02:43:43.414Z,18.90
2022-08-23T02:44:43.393Z,19.00
2022-08-23T02:45:43.376Z,18.92
2022-08-23T02:46:43.358Z,18.94
2022-08-23T02:47:43.341Z,18.78
2022-08-23T02:48:43.319Z,18.69
2022-08-23T02:49:43.301Z,18.58
2022-08-23T02:50:43.281Z,18.57
2022-08-23T02:51:43.265Z,18.50
2022-08-23T02:52:43.241Z,18.47
2022-08-23T02:53:43.225Z,18.44
2022-08-23T02:54:43.206Z,18.47
2022-08-23T02:55:43.187Z,18.55
2022-08-23T02:56:43.164Z,18.51
2022-08-23T02:57:43.147Z,18.57
2022-08-23T02:58:43.128Z,18.62
2022-08-23T02:59:43.109Z,18.67
2022-08-23T03:00:43.087Z,18.69
2022-08-23T03:01:43.069Z,18.69
2022-08-23T03:02:43.095Z,18.70
2022-08-23T03:03:43.033Z,18.67
2022-08-23T03:04:43.010Z,18.57
2022-08-23T03:05:43.496Z,18.48
2022-08-23T03:06:42.973Z,18.50
2022-08-23T03:07:45.558Z,18.42
2022-08-23T03:08:42.934Z,18.44
2022-08-23T03:09:42.918Z,18.37
2022-08-23T03:10:42.903Z,18.29
2022-08-23T03:11:42.878Z,18.18
2022-08-23T03:12:42.858Z,18.18
2022-08-23T03:13:42.846Z,18.10
2022-08-23T03:14:42.889Z,18.12
2022-08-23T03:15:42.801Z,18.05
2022-08-23T03:16:42.782Z,18.11
2022-08-23T03:17:42.764Z,18.03
2022-08-23T03:18:42.744Z,18.07
2022-08-23T03:19:42.725Z,18.17
2022-08-23T03:20:42.703Z,18.17
2022-08-23T03:21:43.445Z,18.20
2022-08-23T03:22:48.529Z,18.14
2022-08-23T03:23:42.652Z,18.18
2022-08-23T03:24:42.626Z,18.27
2022-08-23T03:25:42.609Z,18.29
2022-08-23T03:26:42.600Z,18.35
2022-08-23T03:27:44.529Z,18.32
2022-08-23T03:28:42.552Z,18.35
2022-08-23T03:29:42.535Z,18.27
2022-08-23T03:30:42.510Z,18.32
2022-08-23T03:31:42.491Z,18.21
2022-08-23T03:32:48.790Z,18.20
2022-08-23T03:33:42.456Z,18.15
2022-08-23T03:34:42.434Z,18.08
2022-08-23T03:35:42.418Z,18.12
2022-08-23T03:36:42.393Z,18.21
2022-08-23T03:37:42.381Z,18.10
2022-08-23T03:38:42.359Z,18.21
2022-08-23T03:39:42.396Z,18.18
2022-08-23T03:40:42.317Z,18.25
2022-08-23T03:41:42.299Z,18.29
2022-08-23T03:42:42.278Z,18.30
2022-08-23T03:43:42.259Z,18.32
2022-08-23T03:44:42.240Z,18.39
2022-08-23T03:45:42.222Z,18.39
2022-08-23T03:46:42.201Z,18.44
2022-08-23T03:47:42.233Z,18.50
2022-08-23T03:48:42.165Z,18.58
2022-08-23T03:49:42.143Z,18.57
2022-08-23T03:50:42.125Z,18.60
2022-08-23T03:51:42.107Z,18.57
2022-08-23T03:52:42.084Z,18.57
2022-08-23T03:53:43.671Z,18.47
2022-08-23T03:54:42.048Z,18.47
2022-08-23T03:55:42.180Z,18.30
2022-08-23T03:56:42.010Z,18.27
2022-08-23T03:57:41.990Z,18.18
2022-08-23T03:58:41.970Z,18.15
2022-08-23T03:59:41.951Z,18.26
2022-08-23T04:00:41.930Z,18.20
2022-08-23T04:01:41.956Z,18.08
2022-08-23T04:02:41.891Z,18.15
2022-08-23T04:03:42.174Z,18.15
2022-08-23T04:04:41.853Z,18.14
2022-08-23T04:05:41.837Z,18.21
2022-08-23T04:06:41.821Z,18.26
2022-08-23T04:07:41.855Z,18.30
2022-08-23T04:08:41.876Z,18.30
2022-08-23T04:09:41.865Z,18.33
2022-08-23T04:10:41.787Z,18.33
2022-08-23T04:11:41.718Z,18.32
2022-08-23T04:12:41.700Z,18.37
2022-08-23T04:13:41.678Z,18.33
2022-08-23T04:14:41.659Z,18.32
2022-08-23T04:15:43.388Z,18.32
2022-08-23T04:16:41.620Z,18.32
2022-08-23T04:17:41.602Z,18.27
2022-08-23T04:18:41.581Z,18.21
2022-08-23T04:19:41.563Z,18.20
2022-08-23T04:20:41.543Z,18.11
2022-08-23T04:21:41.525Z,18.10
2022-08-23T04:22:41.504Z,18.07
2022-08-23T04:23:41.491Z,18.08
2022-08-23T04:24:41.466Z,18.12
2022-08-23T04:25:41.446Z,18.11
2022-08-23T04:26:41.426Z,18.12
2022-08-23T04:27:41.409Z,18.15
2022-08-23T04:28:41.402Z,18.14
2022-08-23T04:29:41.370Z,18.07
2022-08-23T04:30:41.351Z,18.14
2022-08-23T04:31:41.332Z,18.21
2022-08-23T04:32:41.311Z,18.21
2022-08-23T04:33:41.292Z,18.35
2022-08-23T04:34:41.272Z,18.27
2022-08-23T04:35:41.254Z,18.30
2022-08-23T04:36:41.234Z,18.32
2022-08-23T04:37:41.212Z,18.20
2022-08-23T04:38:41.193Z,18.15
2022-08-23T04:39:43.249Z,18.07
2022-08-23T04:40:41.155Z,18.23
2022-08-23T04:41:41.140Z,18.11
2022-08-23T04:42:41.119Z,18.11
2022-08-23T04:43:41.103Z,18.11
2022-08-23T04:44:41.077Z,18.11
2022-08-23T04:45:41.060Z,18.10
2022-08-23T04:46:41.039Z,17.93
2022-08-23T04:47:41.020Z,18.02
2022-08-23T04:48:41.001Z,17.95
2022-08-23T04:49:40.982Z,18.08
2022-08-23T04:50:40.965Z,18.03
2022-08-23T04:51:40.943Z,17.99
2022-08-23T04:52:40.921Z,18.10
2022-08-23T04:53:40.903Z,18.15
2022-08-23T04:54:40.882Z,18.11
2022-08-23T04:55:40.865Z,18.11
2022-08-23T04:56:40.844Z,18.18
2022-08-23T04:57:40.827Z,18.21
2022-08-23T04:58:40.806Z,18.29
2022-08-23T04:59:40.788Z,18.29
2022-08-23T05:00:40.809Z,18.36
2022-08-23T05:01:40.749Z,18.39
2022-08-23T05:02:40.729Z,18.44
2022-08-23T05:03:40.710Z,18.44
2022-08-23T05:04:40.687Z,18.48
2022-08-23T05:05:40.669Z,18.47
2022-08-23T05:06:40.649Z,18.62
2022-08-23T05:07:42.551Z,18.54
2022-08-23T05:08:40.612Z,18.63
2022-08-23T05:09:40.591Z,18.65
2022-08-23T05:10:40.571Z,18.60
2022-08-23T05:11:40.555Z,18.65
2022-08-23T05:12:40.536Z,18.55
2022-08-23T05:13:40.513Z,18.55
2022-08-23T05:14:40.494Z,18.44
2022-08-23T05:15:40.475Z,18.47
2022-08-23T05:16:40.457Z,18.48
2022-08-23T05:17:40.441Z,18.44
2022-08-23T05:18:40.417Z,18.62
2022-08-23T05:19:44.249Z,18.57
2022-08-23T05:20:40.397Z,18.62
2022-08-23T05:21:40.375Z,18.55
2022-08-23T05:22:40.357Z,18.63
2022-08-23T05:23:40.325Z,18.73
2022-08-23T05:24:40.299Z,18.80
2022-08-23T05:25:40.280Z,18.75
2022-08-23T05:26:40.262Z,18.67
2022-08-23T05:27:40.244Z,18.78
2022-08-23T05:28:40.221Z,18.91
2022-08-23T05:29:40.203Z,18.85
2022-08-23T05:30:40.182Z,18.88
2022-08-23T05:31:40.169Z,18.82
2022-08-23T05:32:40.146Z,19.00
2022-08-23T05:33:40.126Z,19.06
2022-08-23T05:34:40.106Z,19.08
2022-08-23T05:35:40.086Z,19.11
2022-08-23T05:36:48.286Z,19.06
2022-08-23T05:37:40.046Z,19.18
2022-08-23T05:38:40.030Z,19.25
2022-08-23T05:39:40.053Z,19.19
2022-08-23T05:40:41.494Z,19.21
2022-08-23T05:41:39.971Z,19.25
2022-08-23T05:42:39.959Z,19.31
2022-08-23T05:43:39.932Z,19.23
2022-08-23T05:44:39.918Z,19.28
2022-08-23T05:45:39.893Z,19.41
2022-08-23T05:46:39.876Z,19.43
2022-08-23T05:47:39.855Z,19.39
2022-08-23T05:48:39.839Z,19.40
2022-08-23T05:49:39.818Z,19.46
2022-08-23T05:50:39.798Z,19.50
2022-08-23T05:51:39.782Z,19.54
2022-08-23T05:52:39.759Z,19.59
2022-08-23T05:53:39.740Z,19.58
2022-08-23T05:54:39.719Z,19.56
2022-08-23T05:55:39.703Z,19.63
2022-08-23T05:56:39.684Z,19.61
2022-08-23T05:57:39.666Z,19.65
2022-08-23T05:58:39.647Z,19.65
2022-08-23T05:59:39.631Z,19.62
2022-08-23T06:00:40.453Z,19.74
2022-08-23T06:01:39.588Z,19.84
2022-08-23T06:02:39.568Z,19.84
2022-08-23T06:03:39.551Z,19.87
2022-08-23T06:04:39.529Z,19.86
2022-08-23T06:05:39.510Z,19.95
2022-08-23T06:06:39.490Z,19.94
2022-08-23T06:07:39.474Z,19.96
2022-08-23T06:08:39.452Z,20.10
2022-08-23T06:09:40.447Z,20.14
2022-08-23T06:10:42.312Z,19.99
2022-08-23T06:11:39.397Z,20.13
2022-08-23T06:12:39.388Z,20.02
2022-08-23T06:13:39.357Z,20.17
2022-08-23T06:14:39.357Z,20.14
2022-08-23T06:15:39.322Z,20.11
2022-08-23T06:16:39.300Z,20.17
2022-08-23T06:17:39.285Z,20.32
2022-08-23T06:18:39.261Z,20.36
2022-08-23T06:19:39.252Z,20.35
2022-08-23T06:20:39.264Z,20.35
2022-08-23T06:21:39.213Z,20.41
2022-08-23T06:22:39.189Z,20.47
2022-08-23T06:23:39.174Z,20.43
2022-08-23T06:24:39.151Z,20.42
2022-08-23T06:25:39.135Z,20.59
2022-08-23T06:26:39.113Z,20.58
2022-08-23T06:27:39.100Z,20.58
2022-08-23T06:28:50.415Z,20.67
2022-08-23T06:29:39.060Z,20.66
2022-08-23T06:30:39.849Z,20.66
2022-08-23T06:31:39.022Z,20.64
2022-08-23T06:32:39.032Z,20.67
2022-08-23T06:33:39.055Z,20.77
2022-08-23T06:34:38.961Z,20.76
2022-08-23T06:35:40.026Z,20.80
2022-08-23T06:36:38.925Z,20.80
2022-08-23T06:37:38.907Z,20.77
2022-08-23T06:38:38.887Z,20.82
2022-08-23T06:39:38.870Z,20.79
2022-08-23T06:40:38.850Z,20.82
2022-08-23T06:41:38.836Z,20.80
2022-08-23T06:42:39.112Z,20.87
2022-08-23T06:43:38.798Z,20.89
2022-08-23T06:44:38.774Z,20.98
2022-08-23T06:45:38.766Z,21.01
2022-08-23T06:46:38.815Z,21.07
2022-08-23T06:47:38.727Z,21.10
2022-08-23T06:48:38.702Z,21.10
2022-08-23T06:49:38.681Z,21.10
2022-08-23T06:50:38.665Z,21.12
2022-08-23T06:51:38.645Z,21.19
2022-08-23T06:52:38.626Z,21.19
2022-08-23T06:53:38.606Z,21.25
2022-08-23T06:54:38.591Z,21.24
2022-08-23T06:55:38.571Z,21.27
2022-08-23T06:56:38.554Z,21.34
2022-08-23T06:57:40.384Z,21.32
2022-08-23T06:58:38.517Z,21.40
2022-08-23T06:59:38.496Z,21.52
2022-08-23T07:00:38.544Z,21.52
2022-08-23T07:01:46.922Z,21.58
2022-08-23T07:02:38.496Z,21.64
2022-08-23T07:03:38.423Z,21.71
2022-08-23T07:04:38.409Z,21.71
2022-08-23T07:05:38.385Z,21.83
2022-08-23T07:06:38.368Z,21.83
2022-08-23T07:07:41.440Z,21.90
2022-08-23T07:08:38.331Z,21.90
2022-08-23T07:09:38.312Z,21.98
2022-08-23T07:10:38.294Z,22.00
2022-08-23T07:11:38.274Z,21.98
2022-08-23T07:12:38.260Z,22.02
2022-08-23T07:13:38.243Z,22.09
2022-08-23T07:14:38.220Z,22.20
2022-08-23T07:15:38.207Z,22.22
2022-08-23T07:16:38.264Z,22.27
2022-08-23T07:17:38.162Z,22.24
2022-08-23T07:18:38.150Z,22.42
2022-08-23T07:19:38.126Z,22.35
2022-08-23T07:20:38.112Z,22.49
2022-08-23T07:21:38.093Z,22.57
2022-08-23T07:22:38.074Z,22.54
2022-08-23T07:23:38.059Z,22.58
2022-08-23T07:24:38.037Z,22.67
2022-08-23T07:25:38.018Z,22.75
2022-08-23T07:26:38.004Z,22.77
2022-08-23T07:27:37.989Z,22.91
2022-08-23T07:28:37.964Z,22.88
2022-08-23T07:29:37.947Z,22.79
2022-08-23T07:30:40.999Z,22.91
2022-08-23T07:31:37.953Z,22.94
2022-08-23T07:32:37.894Z,23.02
2022-08-23T07:33:38.388Z,23.04
2022-08-23T07:34:37.856Z,23.12
2022-08-23T07:35:40.494Z,23.15
2022-08-23T07:36:37.825Z,23.17
2022-08-23T07:37:37.800Z,23.32
2022-08-23T07:38:37.787Z,23.38
2022-08-23T07:39:37.768Z,23.47
2022-08-23T07:40:39.012Z,23.42
2022-08-23T07:41:37.729Z,23.53
2022-08-23T07:42:37.716Z,23.55
2022-08-23T07:43:37.693Z,23.53
2022-08-23T07:44:37.676Z,23.55
2022-08-23T07:45:37.656Z,23.73
2022-08-23T07:46:37.688Z,23.69
2022-08-23T07:47:37.624Z,23.70
2022-08-23T07:48:53.361Z,23.80
2022-08-23T07:49:37.587Z,23.83
2022-08-23T07:50:37.570Z,23.80
2022-08-23T07:51:37.551Z,23.95
2022-08-23T07:52:37.534Z,23.90
2022-08-23T07:53:38.262Z,23.98
2022-08-23T07:54:37.504Z,24.05
2022-08-23T07:55:37.487Z,24.03
2022-08-23T07:56:37.464Z,23.98
2022-08-23T07:57:37.448Z,24.08
2022-08-23T07:58:37.430Z,24.00
2022-08-23T07:59:37.414Z,24.06
2022-08-23T08:00:37.394Z,24.06
2022-08-23T08:01:37.436Z,24.21
2022-08-23T08:02:37.393Z,24.30
2022-08-23T08:03:37.395Z,24.28
2022-08-23T08:04:37.330Z,24.20
2022-08-23T08:05:37.361Z,24.27
2022-08-23T08:06:37.492Z,24.35
2022-08-23T08:07:37.627Z,24.34
2022-08-23T08:08:37.357Z,24.49
2022-08-23T08:09:37.238Z,24.55
2022-08-23T08:10:37.221Z,24.55
2022-08-23T08:11:37.205Z,24.55
2022-08-23T08:12:37.188Z,24.58
2022-08-23T08:13:37.172Z,24.65
2022-08-23T08:14:37.383Z,24.68
2022-08-23T08:15:37.137Z,24.71
2022-08-23T08:16:37.122Z,24.68
2022-08-23T08:17:37.103Z,24.81
2022-08-23T08:18:37.085Z,24.84
2022-08-23T08:19:37.072Z,24.78
2022-08-23T08:20:37.054Z,24.90
2022-08-23T08:21:41.847Z,24.93
2022-08-23T08:22:37.026Z,24.99
2022-08-23T08:23:37.001Z,24.93
2022-08-23T08:24:36.983Z,24.99
2022-08-23T08:25:36.969Z,25.02
2022-08-23T08:26:36.951Z,25.09
2022-08-23T08:27:36.938Z,25.17
2022-08-23T08:28:36.925Z,25.18
2022-08-23T08:29:36.898Z,25.18
2022-08-23T08:30:36.885Z,25.10
2022-08-23T08:31:36.916Z,25.10
2022-08-23T08:32:36.855Z,25.20
2022-08-23T08:33:36.833Z,25.13
2022-08-23T08:34:36.818Z,25.17
2022-08-23T08:35:36.800Z,25.33
2022-08-23T08:36:36.789Z,25.32
2022-08-23T08:37:36.772Z,25.32
2022-08-23T08:38:38.865Z,25.30
2022-08-23T08:39:36.733Z,25.43
2022-08-23T08:40:36.719Z,25.50
2022-08-23T08:41:36.701Z,25.40
2022-08-23T08:42:36.687Z,25.46
2022-08-23T08:43:36.672Z,25.46
2022-08-23T08:44:36.653Z,25.47
2022-08-23T08:45:36.636Z,25.50
2022-08-23T08:46:36.664Z,25.61
2022-08-23T08:47:36.602Z,25.69
2022-08-23T08:48:36.588Z,25.67
2022-08-23T08:49:36.572Z,25.76
2022-08-23T08:50:36.556Z,25.77
2022-08-23T08:51:36.541Z,25.77
2022-08-23T08:52:36.789Z,25.76
2022-08-23T08:53:36.505Z,25.87
2022-08-23T08:54:36.490Z,25.87
2022-08-23T08:55:36.475Z,25.85
2022-08-23T08:56:36.460Z,25.87
2022-08-23T08:57:36.440Z,25.87
2022-08-23T08:58:36.428Z,26.01
2022-08-23T08:59:36.412Z,26.05
2022-08-23T09:00:36.394Z,26.06
2022-08-23T09:01:36.432Z,26.02
2022-08-23T09:02:36.512Z,25.99
2022-08-23T09:03:36.474Z,26.01
2022-08-23T09:04:36.329Z,26.01
2022-08-23T09:05:36.316Z,26.05
2022-08-23T09:06:36.298Z,26.17
2022-08-23T09:07:36.282Z,26.18
2022-08-23T09:08:36.265Z,26.29
2022-08-23T09:09:36.249Z,26.28
2022-08-23T09:10:36.234Z,26.28
2022-08-23T09:11:36.228Z,26.28
2022-08-23T09:12:36.217Z,26.28
2022-08-23T09:13:36.186Z,26.17
2022-08-23T09:14:36.180Z,26.23
2022-08-23T09:15:36.199Z,26.28
2022-08-23T09:16:36.138Z,26.35
2022-08-23T09:17:36.125Z,26.35
2022-08-23T09:18:36.106Z,26.36
2022-08-23T09:19:36.096Z,26.43
2022-08-23T09:20:36.086Z,26.32
2022-08-23T09:21:36.063Z,26.43
2022-08-23T09:22:36.046Z,26.47
2022-08-23T09:23:36.030Z,26.44
2022-08-23T09:24:36.018Z,26.43
2022-08-23T09:25:35.997Z,26.50
2022-08-23T09:26:35.984Z,26.54
2022-08-23T09:27:35.965Z,26.55
2022-08-23T09:28:35.951Z,26.65
2022-08-23T09:29:35.935Z,26.66
2022-08-23T09:30:35.919Z,26.62
2022-08-23T09:31:36.113Z,26.39
2022-08-23T09:32:35.895Z,26.26
2022-08-23T09:33:35.873Z,26.23
2022-08-23T09:34:36.085Z,26.32
2022-08-23T09:35:35.840Z,26.47
2022-08-23T09:36:35.828Z,26.51
2022-08-23T09:37:35.813Z,26.58
2022-08-23T09:38:35.798Z,26.63
2022-08-23T09:39:35.781Z,26.60
2022-08-23T09:40:35.765Z,26.63
2022-08-23T09:41:35.749Z,26.66
2022-08-23T09:42:35.737Z,26.85
2022-08-23T09:43:35.722Z,26.87
2022-08-23T09:44:35.707Z,26.99
2022-08-23T09:45:35.972Z,27.06
2022-08-23T09:46:35.723Z,27.18
2022-08-23T09:47:38.424Z,27.19
2022-08-23T09:48:35.645Z,27.22
2022-08-23T09:49:35.628Z,27.29
2022-08-23T09:50:35.612Z,27.36
2022-08-23T09:51:35.596Z,27.34
2022-08-23T09:52:35.580Z,27.36
2022-08-23T09:53:35.564Z,27.22
2022-08-23T09:54:35.553Z,27.22
2022-08-23T09:55:35.535Z,27.32
2022-08-23T09:56:35.521Z,27.36
2022-08-23T09:57:35.509Z,27.13
2022-08-23T09:58:35.491Z,27.00
2022-08-23T09:59:35.480Z,27.02
2022-08-23T10:00:35.462Z,27.06
2022-08-23T10:01:38.929Z,27.06
2022-08-23T10:02:35.431Z,27.19
2022-08-23T10:03:35.414Z,27.32
2022-08-23T10:04:35.469Z,27.34
2022-08-23T10:05:35.383Z,27.36
2022-08-23T10:06:35.370Z,27.46
2022-08-23T10:07:35.358Z,27.46
2022-08-23T10:08:38.442Z,27.57
2022-08-23T10:09:35.326Z,27.62
2022-08-23T10:10:35.311Z,27.67
2022-08-23T10:11:35.297Z,27.74
2022-08-23T10:12:35.280Z,27.85
2022-08-23T10:13:35.270Z,27.75
2022-08-23T10:14:35.251Z,27.81
2022-08-23T10:15:36.333Z,27.81
2022-08-23T10:16:35.317Z,27.72
2022-08-23T10:17:35.207Z,27.78
2022-08-23T10:18:35.193Z,27.77
2022-08-23T10:19:35.175Z,27.78
2022-08-23T10:20:35.160Z,27.74
2022-08-23T10:21:35.145Z,27.82
2022-08-23T10:22:35.139Z,27.84
2022-08-23T10:23:35.128Z,27.84
2022-08-23T10:24:35.102Z,27.82
2022-08-23T10:25:35.090Z,27.94
2022-08-23T10:26:35.074Z,27.96
2022-08-23T10:27:35.062Z,27.97
2022-08-23T10:28:35.764Z,27.84
2022-08-23T10:29:35.029Z,27.81
2022-08-23T10:30:35.015Z,27.93
2022-08-23T10:31:35.088Z,28.02
2022-08-23T10:32:34.995Z,27.96
2022-08-23T10:33:34.970Z,28.07
2022-08-23T10:34:34.958Z,28.15
2022-08-23T10:35:34.946Z,28.25
2022-08-23T10:36:34.934Z,28.34
2022-08-23T10:37:34.910Z,28.31
2022-08-23T10:38:34.902Z,28.36
2022-08-23T10:39:34.882Z,28.48
2022-08-23T10:40:34.975Z,28.48
2022-08-23T10:41:34.856Z,28.62
2022-08-23T10:42:34.839Z,28.61
2022-08-23T10:43:34.825Z,28.59
2022-08-23T10:44:34.812Z,28.73
2022-08-23T10:45:34.794Z,28.62
2022-08-23T10:46:34.841Z,28.77
2022-08-23T10:47:34.772Z,28.67
2022-08-23T10:48:34.756Z,28.70
2022-08-23T10:49:34.749Z,28.81
2022-08-23T10:50:34.725Z,28.85
2022-08-23T10:51:34.712Z,28.74
2022-08-23T10:52:34.697Z,28.73
2022-08-23T10:53:34.680Z,28.66
2022-08-23T10:54:34.669Z,28.70
2022-08-23T10:55:34.651Z,28.70
2022-08-23T10:56:34.642Z,28.68
2022-08-23T10:57:34.623Z,28.67
2022-08-23T10:58:34.609Z,28.62
2022-08-23T10:59:34.594Z,28.56
2022-08-23T11:00:34.582Z,28.61
2022-08-23T11:01:34.702Z,28.67
2022-08-23T11:02:34.628Z,28.68
2022-08-23T11:03:34.538Z,28.73
2022-08-23T11:04:34.532Z,28.86
2022-08-23T11:05:34.511Z,28.78
2022-08-23T11:06:34.496Z,28.88
2022-08-23T11:07:34.482Z,28.88
2022-08-23T11:08:34.465Z,28.90
2022-08-23T11:09:34.453Z,28.81
2022-08-23T11:10:34.437Z,28.70
2022-08-23T11:11:34.424Z,28.77
2022-08-23T11:12:34.409Z,28.73
2022-08-23T11:13:34.396Z,28.85
2022-08-23T11:14:34.382Z,28.83
2022-08-23T11:15:34.455Z,28.71
2022-08-23T11:16:34.352Z,28.78
2022-08-23T11:17:34.340Z,28.77
2022-08-23T11:18:34.341Z,28.88
2022-08-23T11:19:34.311Z,28.90
2022-08-23T11:20:34.304Z,29.16
2022-08-23T11:21:34.290Z,29.19
2022-08-23T11:22:34.271Z,29.15
2022-08-23T11:23:34.257Z,29.18
2022-08-23T11:24:34.247Z,29.19
2022-08-23T11:25:34.227Z,29.18
2022-08-23T11:26:34.212Z,29.31
2022-08-23T11:27:34.200Z,29.36
2022-08-23T11:28:34.186Z,29.34
2022-08-23T11:29:34.172Z,29.37
2022-08-23T11:30:34.211Z,29.37
2022-08-23T11:31:34.145Z,29.41
2022-08-23T11:32:34.130Z,29.41
2022-08-23T11:33:34.116Z,29.37
2022-08-23T11:34:34.100Z,29.42
2022-08-23T11:35:34.089Z,29.45
2022-08-23T11:36:34.074Z,29.61
2022-08-23T11:37:34.060Z,29.61
2022-08-23T11:38:34.044Z,29.61
2022-08-23T11:39:34.033Z,29.58
2022-08-23T11:40:34.048Z,29.53
2022-08-23T11:41:34.002Z,29.39
2022-08-23T11:42:33.989Z,29.34
2022-08-23T11:43:34.482Z,29.30
2022-08-23T11:44:33.961Z,29.24
2022-08-23T11:45:33.954Z,29.26
2022-08-23T11:46:33.940Z,29.33
2022-08-23T11:47:33.920Z,29.37
2022-08-23T11:48:33.911Z,29.46
2022-08-23T11:49:33.890Z,29.55
2022-08-23T11:50:33.895Z,29.63
2022-08-23T11:51:33.865Z,29.63
2022-08-23T11:52:33.849Z,29.55
2022-08-23T11:53:33.850Z,29.53
2022-08-23T11:54:33.820Z,29.52
2022-08-23T11:55:33.808Z,29.63
2022-08-23T11:56:33.797Z,29.58
2022-08-23T11:57:33.792Z,29.57
2022-08-23T11:58:33.768Z,29.61
2022-08-23T11:59:33.759Z,29.74
2022-08-23T12:00:33.746Z,29.64
2022-08-23T12:01:33.725Z,29.57
2022-08-23T12:02:33.880Z,29.57
2022-08-23T12:03:33.922Z,29.57
2022-08-23T12:04:33.683Z,29.55
2022-08-23T12:05:33.670Z,29.63
2022-08-23T12:06:34.280Z,29.53
2022-08-23T12:07:33.644Z,29.60
2022-08-23T12:08:33.626Z,29.61
2022-08-23T12:09:33.614Z,29.58
2022-08-23T12:10:33.600Z,29.60
2022-08-23T12:11:33.590Z,29.58
2022-08-23T12:12:38.547Z,29.58
2022-08-23T12:13:33.564Z,29.61
2022-08-23T12:14:33.559Z,29.58
2022-08-23T12:15:33.594Z,29.51
2022-08-23T12:16:33.523Z,29.42
2022-08-23T12:17:36.721Z,29.30
2022-08-23T12:18:33.491Z,29.33
2022-08-23T12:19:38.072Z,29.33
2022-08-23T12:20:33.470Z,29.33
2022-08-23T12:21:33.457Z,29.33
2022-08-23T12:22:33.444Z,29.37
2022-08-23T12:23:33.428Z,29.37
2022-08-23T12:24:33.409Z,29.52
2022-08-23T12:25:33.717Z,29.53
2022-08-23T12:26:33.380Z,29.58
2022-08-23T12:27:33.368Z,29.71
2022-08-23T12:28:33.352Z,29.78
2022-08-23T12:29:33.339Z,29.82
2022-08-23T12:30:33.325Z,29.82
2022-08-23T12:31:33.393Z,29.86
2022-08-23T12:32:33.305Z,29.87
2022-08-23T12:33:33.287Z,29.76
2022-08-23T12:34:33.275Z,29.73
2022-08-23T12:35:33.255Z,29.61
2022-08-23T12:36:33.241Z,29.58
2022-08-23T12:37:33.231Z,29.57
2022-08-23T12:38:33.215Z,29.53
2022-08-23T12:39:33.201Z,29.53
2022-08-23T12:40:33.185Z,29.51
2022-08-23T12:41:33.173Z,29.46
2022-08-23T12:42:33.158Z,29.42
2022-08-23T12:43:33.146Z,29.52
2022-08-23T12:44:34.008Z,29.52
2022-08-23T12:45:33.118Z,29.58
2022-08-23T12:46:33.188Z,29.46
2022-08-23T12:47:33.092Z,29.52
2022-08-23T12:48:33.077Z,29.52
2022-08-23T12:49:33.062Z,29.52
2022-08-23T12:50:33.511Z,29.61
2022-08-23T12:51:33.035Z,29.60
2022-08-23T12:52:33.017Z,29.58